createdAt,value
2023-03-06T00:00:27.303Z,14.33
2023-03-06T00:02:59.764Z,12.53
2023-03-06T00:05:28.871Z,12.77
2023-03-06T00:07:57.124Z,13.93
2023-03-06T00:10:27.443Z,15.33
2023-03-06T00:13:01.844Z,12.30
2023-03-06T00:18:28.880Z,13.53
2023-03-06T00:20:57.743Z,14.93
2023-03-06T00:23:29.280Z,12.73
2023-03-06T00:26:00.049Z,15.37
2023-03-06T00:28:32.877Z,14.20
2023-03-06T00:31:16.011Z,15.67
2023-03-06T00:33:45.642Z,17.77
2023-03-06T00:39:11.700Z,14.83
2023-03-06T00:41:47.095Z,14.77
2023-03-06T00:44:21.611Z,15.03
2023-03-06T00:46:49.484Z,15.07
2023-03-06T00:49:18.680Z,14.17
2023-03-06T00:51:46.485Z,16.20
2023-03-06T00:54:15.549Z,15.90
2023-03-06T00:56:43.509Z,15.77
2023-03-06T00:59:12.038Z,15.93
2023-03-06T01:01:41.330Z,17.00
2023-03-06T01:04:09.278Z,16.57
2023-03-06T01:06:37.354Z,18.07
2023-03-06T01:09:05.928Z,17.20
2023-03-06T01:11:33.955Z,17.27
2023-03-06T01:14:01.864Z,16.50
2023-03-06T01:16:29.850Z,16.43
2023-03-06T01:19:29.732Z,20.77
2023-03-06T01:22:25.374Z,17.40
2023-03-06T01:25:23.009Z,17.70
2023-03-06T01:27:54.931Z,19.87
2023-03-06T01:30:23.308Z,19.17
2023-03-06T01:33:09.685Z,17.60
2023-03-06T01:35:49.277Z,16.70
2023-03-06T01:38:30.484Z,17.57
2023-03-06T01:40:58.750Z,18.53
2023-03-06T01:43:29.844Z,16.43
2023-03-06T01:46:32.720Z,16.60
2023-03-06T01:49:07.278Z,18.10
2023-03-06T01:51:44.570Z,16.30
2023-03-06T01:54:16.465Z,16.10
2023-03-06T01:56:46.855Z,16.83
2023-03-06T01:59:15.759Z,16.43
2023-03-06T02:01:44.936Z,16.67
2023-03-06T02:04:13.281Z,16.03
2023-03-06T02:06:44.250Z,15.60
2023-03-06T02:09:13.738Z,15.77
2023-03-06T02:11:44.088Z,18.80
2023-03-06T02:14:14.103Z,16.93
2023-03-06T02:16:43.431Z,18.60
2023-03-06T02:19:23.084Z,17.63
2023-03-06T02:21:52.377Z,18.03
2023-03-06T02:24:33.537Z,18.73
2023-03-06T02:27:05.371Z,18.27
2023-03-06T02:29:34.434Z,20.27
2023-03-06T02:32:02.340Z,19.70
2023-03-06T02:35:00.353Z,16.33
2023-03-06T02:37:30.107Z,16.43
2023-03-06T02:40:12.388Z,16.33
2023-03-06T02:42:50.327Z,22.10
2023-03-06T02:45:26.537Z,17.47
2023-03-06T02:47:57.194Z,16.33
2023-03-06T02:50:26.399Z,16.80
2023-03-06T02:52:54.604Z,17.93
2023-03-06T02:55:24.345Z,16.50
2023-03-06T02:57:53.755Z,18.47
2023-03-06T03:00:22.162Z,16.97
2023-03-06T03:02:49.982Z,17.03
2023-03-06T03:05:18.085Z,18.13
2023-03-06T03:07:45.982Z,17.83
2023-03-06T03:10:14.803Z,17.77
2023-03-06T03:12:43.248Z,17.37
2023-03-06T03:15:13.311Z,17.23
2023-03-06T03:17:42.149Z,17.97
2023-03-06T03:20:14.188Z,16.77
2023-03-06T03:22:44.709Z,17.07
2023-03-06T03:25:12.583Z,18.90
2023-03-06T03:27:40.432Z,14.93
2023-03-06T03:30:10.220Z,17.07
2023-03-06T03:32:39.476Z,15.70
2023-03-06T03:35:09.391Z,13.83
2023-03-06T03:37:37.685Z,17.37
2023-03-06T03:40:07.939Z,17.33
2023-03-06T03:42:35.833Z,16.63
2023-03-06T03:45:03.854Z,16.93
2023-03-06T03:47:31.790Z,15.63
2023-03-06T03:50:00.976Z,15.50
2023-03-06T03:52:29.000Z,16.97
2023-03-06T03:54:57.054Z,19.50
2023-03-06T03:57:25.006Z,15.30
2023-03-06T03:59:52.847Z,17.10
2023-03-06T04:02:21.860Z,16.83
2023-03-06T04:04:50.089Z,17.43
2023-03-06T04:07:19.458Z,16.03
2023-03-06T04:09:48.136Z,17.13
2023-03-06T04:12:16.158Z,15.90
2023-03-06T04:14:44.791Z,16.73
2023-03-06T04:17:13.022Z,17.57
2023-03-06T04:19:41.106Z,16.73
2023-03-06T04:22:08.988Z,15.43
2023-03-06T04:24:40.568Z,16.13
2023-03-06T04:27:08.458Z,15.43
2023-03-06T04:29:36.340Z,18.70
2023-03-06T04:32:04.336Z,19.23
2023-03-06T04:34:32.290Z,19.27
2023-03-06T04:37:00.101Z,17.10
2023-03-06T04:39:27.999Z,18.13
2023-03-06T04:41:57.271Z,17.03
2023-03-06T04:44:25.698Z,16.10
2023-03-06T04:46:53.748Z,18.17
2023-03-06T04:49:21.561Z,17.83
2023-03-06T04:51:49.397Z,19.37
2023-03-06T04:54:19.000Z,18.30
2023-03-06T04:56:47.087Z,16.70
2023-03-06T04:59:16.307Z,17.70
2023-03-06T05:01:44.198Z,18.47
2023-03-06T05:04:12.056Z,19.93
2023-03-06T05:06:39.983Z,23.20
2023-03-06T05:09:07.945Z,22.93
2023-03-06T05:11:35.882Z,21.33
2023-03-06T05:14:03.870Z,20.07
2023-03-06T05:16:33.265Z,23.83
2023-03-06T05:19:01.148Z,20.50
2023-03-06T05:21:29.006Z,22.63
2023-03-06T05:23:59.767Z,20.60
2023-03-06T05:29:26.275Z,18.87
2023-03-06T05:32:45.294Z,21.13
2023-03-06T05:35:24.171Z,21.20
2023-03-06T05:37:52.519Z,25.67
2023-03-06T05:40:36.369Z,25.33
2023-03-06T05:43:04.210Z,31.60
2023-03-06T05:45:32.086Z,24.50
2023-03-06T05:48:01.389Z,23.67
2023-03-06T05:53:20.926Z,29.30
2023-03-06T05:56:00.214Z,24.13
2023-03-06T05:58:38.972Z,21.47
2023-03-06T06:01:14.307Z,23.37
2023-03-06T06:03:45.438Z,17.73
2023-03-06T06:06:22.709Z,21.67
2023-03-06T06:08:52.050Z,22.47
2023-03-06T06:11:25.139Z,23.90
2023-03-06T06:13:56.404Z,23.13
2023-03-06T06:16:25.762Z,19.43
2023-03-06T06:18:54.940Z,16.53
2023-03-06T06:21:22.813Z,18.33
2023-03-06T06:23:50.763Z,16.90
2023-03-06T06:26:20.910Z,14.90
2023-03-06T06:28:51.601Z,16.17
2023-03-06T06:31:21.797Z,17.80
2023-03-06T06:33:50.219Z,23.90
2023-03-06T06:36:21.512Z,21.33
2023-03-06T06:38:50.178Z,14.83
2023-03-06T06:41:46.237Z,19.23
2023-03-06T06:44:11.363Z,16.33
2023-03-06T06:47:20.811Z,16.57
2023-03-06T06:49:30.305Z,15.53
2023-03-06T06:52:00.083Z,20.43
2023-03-06T06:54:28.666Z,17.87
2023-03-06T06:56:56.777Z,16.17
2023-03-06T06:59:24.663Z,16.97
2023-03-06T07:01:53.469Z,16.33
2023-03-06T07:04:21.548Z,16.73
2023-03-06T07:06:49.621Z,22.10
2023-03-06T07:09:20.104Z,17.43
2023-03-06T07:11:48.189Z,17.23
2023-03-06T07:14:16.135Z,15.70
2023-03-06T07:16:44.150Z,17.90
2023-03-06T07:19:12.020Z,22.73
2023-03-06T07:21:40.124Z,21.47
2023-03-06T07:24:08.231Z,17.80
2023-03-06T07:26:37.819Z,16.37
2023-03-06T07:29:06.558Z,17.37
2023-03-06T07:31:34.516Z,17.87
2023-03-06T07:34:04.801Z,15.77
2023-03-06T07:36:33.581Z,18.77
2023-03-06T07:39:01.498Z,16.83
2023-03-06T07:41:29.425Z,16.90
2023-03-06T07:43:58.642Z,15.83
2023-03-06T07:46:26.717Z,16.30
2023-03-06T07:48:54.858Z,16.00
2023-03-06T07:51:23.892Z,16.77
2023-03-06T07:53:51.989Z,15.40
2023-03-06T07:56:19.932Z,22.03
2023-03-06T07:58:48.535Z,17.17
2023-03-06T08:01:20.797Z,17.40
2023-03-06T08:03:50.174Z,15.90
2023-03-06T08:06:19.886Z,19.20
2023-03-06T08:08:49.404Z,15.67
2023-03-06T08:11:20.052Z,17.20
2023-03-06T08:13:48.803Z,15.90
2023-03-06T08:16:18.562Z,15.20
2023-03-06T08:18:46.768Z,16.93
2023-03-06T08:21:17.201Z,16.77
2023-03-06T08:23:45.851Z,15.77
2023-03-06T08:26:15.968Z,15.52
2023-03-06T08:28:44.472Z,15.45
2023-03-06T08:31:14.172Z,16.15
2023-03-06T08:33:43.697Z,15.18
2023-03-06T08:36:11.780Z,16.52
2023-03-06T08:38:39.594Z,15.23
2023-03-06T08:41:08.612Z,15.38
2023-03-06T08:43:36.571Z,16.33
2023-03-06T08:46:04.617Z,15.32
2023-03-06T08:48:32.760Z,14.45
2023-03-06T08:51:02.220Z,17.23
2023-03-06T08:53:42.786Z,16.50
2023-03-06T08:56:17.635Z,15.38
2023-03-06T08:58:46.040Z,15.30
2023-03-06T09:01:16.004Z,14.68
2023-03-06T09:03:44.162Z,14.00
2023-03-06T09:06:14.707Z,14.02
2023-03-06T09:08:44.786Z,17.02
2023-03-06T09:11:13.572Z,15.10
2023-03-06T09:13:42.290Z,17.30
2023-03-06T09:16:11.818Z,15.90
2023-03-06T09:18:40.055Z,14.77
2023-03-06T09:21:09.238Z,15.15
2023-03-06T09:23:40.080Z,17.98
2023-03-06T09:26:09.348Z,14.70
2023-03-06T09:28:39.901Z,16.73
2023-03-06T09:31:14.805Z,17.52
2023-03-06T09:33:44.389Z,16.55
2023-03-06T09:36:18.468Z,15.73
2023-03-06T09:38:50.301Z,19.30
2023-03-06T09:41:32.253Z,16.50
2023-03-06T09:44:06.193Z,17.38
2023-03-06T09:46:48.767Z,17.92
2023-03-06T09:49:35.326Z,17.08
2023-03-06T09:52:14.130Z,16.90
2023-03-06T09:54:46.451Z,18.33
2023-03-06T09:57:25.069Z,17.48
2023-03-06T09:59:57.122Z,18.35
2023-03-06T10:02:34.728Z,18.35
2023-03-06T10:05:06.792Z,19.80
2023-03-06T10:07:46.794Z,17.98
2023-03-06T10:10:20.876Z,20.52
2023-03-06T10:12:59.239Z,18.48
2023-03-06T10:15:32.558Z,17.88
2023-03-06T10:18:01.713Z,19.65
2023-03-06T10:20:35.628Z,18.25
2023-03-06T10:23:24.821Z,19.58
2023-03-06T10:26:01.707Z,16.55
2023-03-06T10:28:35.573Z,17.75
2023-03-06T10:31:14.914Z,16.80
2023-03-06T10:33:55.687Z,16.10
2023-03-06T10:36:27.549Z,15.95
2023-03-06T10:39:00.212Z,17.08
2023-03-06T10:41:31.087Z,16.90
2023-03-06T10:44:23.509Z,17.15
2023-03-06T10:46:56.316Z,18.83
2023-03-06T10:49:31.717Z,18.35
2023-03-06T10:52:02.496Z,18.42
2023-03-06T10:54:32.284Z,16.80
2023-03-06T10:57:22.256Z,15.60
2023-03-06T10:59:57.535Z,19.38
2023-03-06T11:02:32.131Z,15.95
2023-03-06T11:05:03.670Z,17.77
2023-03-06T11:07:35.433Z,18.27
2023-03-06T11:10:13.889Z,15.67
2023-03-06T11:12:45.306Z,15.90
2023-03-06T11:15:22.423Z,15.67
2023-03-06T11:17:56.283Z,17.40
2023-03-06T11:20:48.540Z,15.77
2023-03-06T11:23:23.363Z,18.53
2023-03-06T11:25:56.550Z,15.40
2023-03-06T11:28:32.647Z,15.07
2023-03-06T11:31:04.983Z,13.83
2023-03-06T11:33:40.812Z,16.00
2023-03-06T11:36:16.419Z,16.93
2023-03-06T11:38:52.288Z,15.50
2023-03-06T11:41:32.217Z,15.43
2023-03-06T11:44:16.524Z,18.60
2023-03-06T11:46:50.922Z,19.27
2023-03-06T11:49:25.452Z,18.17
2023-03-06T11:51:57.641Z,13.63
2023-03-06T11:54:26.298Z,16.27
2023-03-06T11:56:59.363Z,13.23
2023-03-06T11:59:46.309Z,13.10
2023-03-06T12:02:26.714Z,15.63
2023-03-06T12:05:10.675Z,15.30
2023-03-06T12:07:48.046Z,14.17
2023-03-06T12:10:29.729Z,15.23
2023-03-06T12:16:24.483Z,14.18
2023-03-06T12:19:02.903Z,17.90
2023-03-06T12:21:39.291Z,14.23
2023-03-06T12:24:29.097Z,14.00
2023-03-06T12:27:08.241Z,15.70
2023-03-06T12:29:53.777Z,17.55
2023-03-06T12:32:39.470Z,14.48
2023-03-06T12:35:38.830Z,13.02
2023-03-06T12:38:25.297Z,15.57
2023-03-06T12:41:05.392Z,15.38
2023-03-06T12:44:00.890Z,14.52
2023-03-06T12:46:30.710Z,17.58
2023-03-06T12:49:12.334Z,15.80
2023-03-06T12:51:41.501Z,12.77
2023-03-06T12:54:15.538Z,24.33
2023-03-06T12:56:44.779Z,14.07
2023-03-06T12:59:45.446Z,13.27
2023-03-06T13:02:48.488Z,14.00
2023-03-06T13:05:59.443Z,11.47
2023-03-06T13:09:02.006Z,11.83
2023-03-06T13:11:49.955Z,12.43
2023-03-06T13:14:24.176Z,15.67
2023-03-06T13:16:53.623Z,19.20
2023-03-06T13:19:24.962Z,14.13
2023-03-06T13:22:27.438Z,10.93
2023-03-06T13:25:42.728Z,11.50
2023-03-06T13:28:24.906Z,11.97
2023-03-06T13:30:53.429Z,13.40
2023-03-06T13:33:57.583Z,11.70
2023-03-06T13:36:31.528Z,11.80
2023-03-06T13:39:11.913Z,10.67
2023-03-06T13:42:02.093Z,11.00
2023-03-06T13:44:46.403Z,13.20
2023-03-06T13:48:01.397Z,10.23
2023-03-06T13:50:35.458Z,9.90
2023-03-06T13:53:53.986Z,8.50
2023-03-06T13:56:42.792Z,12.77
2023-03-06T13:59:36.833Z,9.03
2023-03-06T14:02:21.406Z,7.57
2023-03-06T14:04:57.175Z,7.50
2023-03-06T14:07:28.701Z,4.90
2023-03-06T14:10:21.886Z,6.63
2023-03-06T14:13:05.294Z,4.10
2023-03-06T14:15:43.147Z,4.67
2023-03-06T14:18:20.306Z,7.07
2023-03-06T14:20:53.131Z,4.40
2023-03-06T14:23:35.420Z,5.20
2023-03-06T14:26:15.754Z,4.10
2023-03-06T14:28:45.274Z,4.63
2023-03-06T14:31:18.189Z,4.77
2023-03-06T14:33:52.649Z,6.07
2023-03-06T14:36:23.596Z,4.63
2023-03-06T14:38:53.865Z,5.97
2023-03-06T14:41:27.494Z,8.40
2023-03-06T14:44:17.787Z,5.70
2023-03-06T14:46:46.504Z,5.20
2023-03-06T14:49:17.045Z,5.87
2023-03-06T14:51:47.741Z,9.17
2023-03-06T14:54:19.604Z,5.27
2023-03-06T14:56:49.442Z,4.40
2023-03-06T14:59:21.752Z,4.80
2023-03-06T15:01:52.877Z,4.90
2023-03-06T15:04:30.093Z,5.33
2023-03-06T15:06:59.642Z,4.10
2023-03-06T15:09:31.114Z,5.03
2023-03-06T15:12:01.242Z,4.43
2023-03-06T15:14:35.261Z,4.37
2023-03-06T15:17:39.298Z,6.13
2023-03-06T15:20:41.408Z,9.90
2023-03-06T15:23:19.168Z,4.17
2023-03-06T15:25:58.955Z,5.40
2023-03-06T15:28:33.625Z,5.50
2023-03-06T15:31:20.515Z,7.20
2023-03-06T15:34:24.981Z,4.67
2023-03-06T15:36:56.498Z,6.50
2023-03-06T15:39:39.128Z,4.50
2023-03-06T15:42:28.065Z,5.40
2023-03-06T15:44:59.021Z,5.77
2023-03-06T15:47:26.985Z,5.67
2023-03-06T15:49:56.948Z,6.67
2023-03-06T15:52:26.202Z,6.63
2023-03-06T15:54:54.120Z,7.53
2023-03-06T15:57:25.048Z,7.53
2023-03-06T15:59:54.757Z,6.10
2023-03-06T16:02:24.338Z,7.60
2023-03-06T16:04:53.801Z,8.20
2023-03-06T16:07:23.756Z,5.83
2023-03-06T16:09:53.192Z,6.37
2023-03-06T16:12:22.970Z,7.63
2023-03-06T16:14:50.960Z,6.60
2023-03-06T16:17:19.254Z,7.87
2023-03-06T16:19:47.240Z,7.33
2023-03-06T16:22:15.369Z,8.07
2023-03-06T16:24:43.738Z,6.70
2023-03-06T16:27:18.857Z,6.87
2023-03-06T16:29:46.741Z,6.27
2023-03-06T16:32:16.374Z,5.93
2023-03-06T16:34:48.066Z,6.53
2023-03-06T16:37:20.968Z,5.33
2023-03-06T16:39:48.920Z,11.77
2023-03-06T16:42:30.499Z,5.80
2023-03-06T16:44:59.542Z,10.03
2023-03-06T16:47:29.212Z,6.33
2023-03-06T16:49:58.474Z,6.40
2023-03-06T16:52:36.527Z,6.27
2023-03-06T16:55:14.198Z,7.87
2023-03-06T16:57:50.258Z,7.67
2023-03-06T17:00:23.915Z,7.27
2023-03-06T17:02:55.733Z,10.07
2023-03-06T17:05:34.914Z,8.07
2023-03-06T17:08:11.574Z,6.80
2023-03-06T17:10:44.748Z,9.13
2023-03-06T17:13:20.767Z,7.57
2023-03-06T17:16:02.422Z,7.00
2023-03-06T17:18:36.702Z,8.43
2023-03-06T17:21:19.927Z,8.43
2023-03-06T17:23:58.600Z,9.40
2023-03-06T17:26:33.214Z,5.90
2023-03-06T17:29:11.527Z,6.73
2023-03-06T17:31:49.772Z,7.23
2023-03-06T17:34:24.540Z,7.60
2023-03-06T17:37:00.786Z,7.90
2023-03-06T17:39:46.096Z,7.90
2023-03-06T17:42:22.329Z,8.17
2023-03-06T17:44:56.500Z,9.30
2023-03-06T17:47:36.845Z,7.17
2023-03-06T17:50:16.986Z,7.10
2023-03-06T17:52:47.382Z,7.30
2023-03-06T17:55:22.701Z,8.07
2023-03-06T17:57:55.600Z,15.90
2023-03-06T18:00:42.997Z,13.70
2023-03-06T18:03:28.571Z,10.53
2023-03-06T18:06:00.797Z,10.73
2023-03-06T18:08:42.434Z,8.20
2023-03-06T18:11:18.635Z,10.73
2023-03-06T18:14:08.575Z,10.43
2023-03-06T18:16:43.738Z,10.97
2023-03-06T18:19:19.753Z,13.20
2023-03-06T18:21:57.146Z,10.20
2023-03-06T18:24:25.159Z,11.93
2023-03-06T18:27:15.059Z,13.17
2023-03-06T18:29:45.581Z,14.80
2023-03-06T18:32:25.826Z,12.33
2023-03-06T18:34:58.457Z,15.70
2023-03-06T18:37:41.078Z,17.57
2023-03-06T18:40:15.350Z,10.90
2023-03-06T18:42:52.005Z,16.67
2023-03-06T18:45:24.494Z,13.60
2023-03-06T18:48:11.445Z,15.67
2023-03-06T18:50:53.284Z,17.93
2023-03-06T18:53:28.850Z,17.30
2023-03-06T18:55:58.593Z,11.53
2023-03-06T18:58:33.399Z,12.03
2023-03-06T19:01:13.427Z,12.07
2023-03-06T19:03:49.080Z,13.27
2023-03-06T19:06:26.327Z,12.70
2023-03-06T19:09:03.975Z,21.20
2023-03-06T19:11:41.776Z,7.17
2023-03-06T19:14:25.185Z,9.43
2023-03-06T19:16:57.101Z,13.13
2023-03-06T19:19:34.172Z,12.67
2023-03-06T19:22:09.001Z,12.63
2023-03-06T19:24:48.430Z,12.30
2023-03-06T19:27:18.468Z,10.07
2023-03-06T19:29:48.237Z,10.43
2023-03-06T19:32:24.989Z,13.03
2023-03-06T19:34:59.295Z,13.70
2023-03-06T19:37:46.697Z,29.30
2023-03-06T19:40:27.755Z,29.53
2023-03-06T19:43:14.229Z,37.17
2023-03-06T19:46:06.235Z,32.73
2023-03-06T19:51:59.745Z,25.37
2023-03-06T19:54:51.546Z,23.23
2023-03-06T19:57:31.034Z,21.00
2023-03-06T20:00:26.684Z,20.70
2023-03-06T20:02:55.778Z,21.57
2023-03-06T20:05:37.019Z,20.37
2023-03-06T20:08:16.756Z,21.57
2023-03-06T20:17:42.282Z,18.10
2023-03-06T20:20:23.401Z,18.20
2023-03-06T20:23:26.795Z,17.10
2023-03-06T20:26:28.673Z,16.93
2023-03-06T20:29:07.232Z,17.73
2023-03-06T20:31:48.987Z,18.60
2023-03-06T20:34:18.684Z,22.60
2023-03-06T20:36:51.872Z,18.67
2023-03-06T20:42:23.020Z,24.13
2023-03-06T20:45:44.875Z,20.27
2023-03-06T20:48:21.034Z,19.07
2023-03-06T20:51:14.822Z,17.07
2023-03-06T20:53:50.689Z,17.50
2023-03-06T20:57:04.285Z,17.17
2023-03-06T20:59:34.219Z,21.50
2023-03-06T21:02:13.893Z,17.50
2023-03-06T21:05:16.569Z,15.97
2023-03-06T21:11:44.211Z,17.63
2023-03-06T21:14:42.742Z,13.77
2023-03-06T21:20:47.398Z,17.13
2023-03-06T21:23:30.142Z,19.20
2023-03-06T21:26:31.437Z,18.27
2023-03-06T21:29:12.497Z,21.37
2023-03-06T21:32:04.420Z,19.47
2023-03-06T21:35:14.975Z,16.93
2023-03-06T21:44:20.383Z,17.23
2023-03-06T21:46:54.642Z,20.60
2023-03-06T21:52:51.847Z,17.70
2023-03-06T21:55:41.099Z,23.87
2023-03-06T21:58:21.993Z,18.40
2023-03-06T22:04:11.406Z,16.87
2023-03-06T22:06:51.912Z,18.40
2023-03-06T22:09:32.211Z,17.07
2023-03-06T22:12:32.333Z,18.70
2023-03-06T22:15:25.935Z,17.60
2023-03-06T22:18:34.559Z,15.57
2023-03-06T22:21:27.404Z,19.07
2023-03-06T22:24:20.055Z,17.37
2023-03-06T22:26:58.266Z,19.53
2023-03-06T22:32:52.464Z,16.87
2023-03-06T22:35:23.001Z,18.63
2023-03-06T22:38:08.848Z,18.37
2023-03-06T22:41:17.521Z,16.50
2023-03-06T22:44:18.846Z,18.67
2023-03-06T22:47:08.533Z,20.43
2023-03-06T22:49:57.070Z,20.47
2023-03-06T22:52:39.744Z,17.53
2023-03-06T22:55:27.212Z,19.60
2023-03-06T22:58:19.856Z,19.20
2023-03-06T23:00:51.762Z,18.33
2023-03-06T23:03:57.653Z,18.83
2023-03-06T23:06:47.775Z,26.00
2023-03-06T23:09:24.763Z,24.90
2023-03-06T23:12:12.024Z,27.87
2023-03-06T23:15:10.103Z,24.80
2023-03-06T23:17:48.349Z,15.77
2023-03-06T23:23:41.037Z,16.27
2023-03-06T23:26:13.776Z,15.00
2023-03-06T23:28:48.143Z,12.50
2023-03-06T23:34:26.230Z,12.17
2023-03-06T23:37:07.018Z,11.73
2023-03-06T23:42:29.006Z,10.37
2023-03-06T23:45:05.114Z,12.77
2023-03-06T23:48:06.355Z,11.30
2023-03-06T23:50:48.284Z,11.80
2023-03-06T23:53:21.293Z,11.93
2023-03-06T23:55:57.767Z,10.67
2023-03-06T23:58:44.630Z,12.17
